sensor_id;sensor_type;location;lat;lon;timestamp;P1;durP1;ratioP1;P2;durP2;ratioP2
15528;SDS011;7866;52.280;9.500;2023-05-10T00:00:47;2.58;;;1.80;;
15528;SDS011;7866;52.280;9.500;2023-05-10T00:05:49;2.25;;;2.05;;
15528;SDS011;7866;52.280;9.500;2023-05-10T00:10:50;2.58;;;2.10;;
15528;SDS011;7866;52.280;9.500;2023-05-10T00:15:54;2.13;;;2.00;;
15528;SDS011;7866;52.280;9.500;2023-05-10T00:20:56;2.47;;;2.10;;
15528;SDS011;7866;52.280;9.500;2023-05-10T00:25:58;3.38;;;1.90;;
15528;SDS011;7866;52.280;9.500;2023-05-10T00:31:01;2.45;;;1.70;;
15528;SDS011;7866;52.280;9.500;2023-05-10T00:36:02;3.28;;;2.10;;
15528;SDS011;7866;52.280;9.500;2023-05-10T00:41:07;2.30;;;2.00;;
15528;SDS011;7866;52.280;9.500;2023-05-10T00:46:10;3.35;;;2.00;;
15528;SDS011;7866;52.280;9.500;2023-05-10T00:51:12;2.72;;;2.10;;
15528;SDS011;7866;52.280;9.500;2023-05-10T00:56:14;1.77;;;1.67;;
15528;SDS011;7866;52.280;9.500;2023-05-10T01:01:17;2.30;;;2.10;;
15528;SDS011;7866;52.280;9.500;2023-05-10T01:06:20;2.67;;;2.13;;
15528;SDS011;7866;52.280;9.500;2023-05-10T01:11:22;2.05;;;1.95;;
15528;SDS011;7866;52.280;9.500;2023-05-10T01:16:25;3.00;;;2.50;;
15528;SDS011;7866;52.280;9.500;2023-05-10T01:21:30;2.10;;;1.90;;
15528;SDS011;7866;52.280;9.500;2023-05-10T01:26:45;3.30;;;2.20;;
15528;SDS011;7866;52.280;9.500;2023-05-10T01:32:13;4.53;;;2.27;;
15528;SDS011;7866;52.280;9.500;2023-05-10T01:37:21;2.57;;;2.20;;
15528;SDS011;7866;52.280;9.500;2023-05-10T01:42:32;2.20;;;2.10;;
15528;SDS011;7866;52.280;9.500;2023-05-10T01:47:43;2.05;;;1.90;;
15528;SDS011;7866;52.280;9.500;2023-05-10T01:52:50;2.30;;;2.10;;
15528;SDS011;7866;52.280;9.500;2023-05-10T01:57:56;2.53;;;2.10;;
15528;SDS011;7866;52.280;9.500;2023-05-10T02:03:06;3.07;;;2.47;;
15528;SDS011;7866;52.280;9.500;2023-05-10T02:08:09;2.47;;;2.27;;
15528;SDS011;7866;52.280;9.500;2023-05-10T02:13:12;2.75;;;2.10;;
15528;SDS011;7866;52.280;9.500;2023-05-10T02:18:18;4.20;;;2.57;;
15528;SDS011;7866;52.280;9.500;2023-05-10T02:23:20;2.33;;;2.13;;
15528;SDS011;7866;52.280;9.500;2023-05-10T02:28:24;3.63;;;2.38;;
15528;SDS011;7866;52.280;9.500;2023-05-10T02:33:29;5.80;;;2.30;;
15528;SDS011;7866;52.280;9.500;2023-05-10T02:38:32;2.83;;;2.50;;
15528;SDS011;7866;52.280;9.500;2023-05-10T02:43:36;3.53;;;2.33;;
15528;SDS011;7866;52.280;9.500;2023-05-10T02:48:40;2.63;;;2.13;;
15528;SDS011;7866;52.280;9.500;2023-05-10T02:53:42;2.80;;;2.60;;
15528;SDS011;7866;52.280;9.500;2023-05-10T02:58:45;3.87;;;2.50;;
15528;SDS011;7866;52.280;9.500;2023-05-10T03:03:48;2.43;;;2.23;;
15528;SDS011;7866;52.280;9.500;2023-05-10T03:08:50;3.20;;;2.30;;
15528;SDS011;7866;52.280;9.500;2023-05-10T03:13:55;2.53;;;2.30;;
15528;SDS011;7866;52.280;9.500;2023-05-10T03:19:09;2.73;;;2.20;;
15528;SDS011;7866;52.280;9.500;2023-05-10T03:24:17;2.20;;;2.10;;
15528;SDS011;7866;52.280;9.500;2023-05-10T03:29:22;3.55;;;2.33;;
15528;SDS011;7866;52.280;9.500;2023-05-10T03:34:29;2.70;;;2.50;;
15528;SDS011;7866;52.280;9.500;2023-05-10T03:39:31;2.67;;;2.47;;
15528;SDS011;7866;52.280;9.500;2023-05-10T03:44:33;3.10;;;2.73;;
15528;SDS011;7866;52.280;9.500;2023-05-10T03:49:36;3.53;;;2.20;;
15528;SDS011;7866;52.280;9.500;2023-05-10T03:54:37;3.10;;;2.50;;
15528;SDS011;7866;52.280;9.500;2023-05-10T03:59:39;2.53;;;2.33;;
15528;SDS011;7866;52.280;9.500;2023-05-10T04:04:42;3.97;;;2.27;;
15528;SDS011;7866;52.280;9.500;2023-05-10T04:09:43;3.17;;;2.83;;
15528;SDS011;7866;52.280;9.500;2023-05-10T04:14:45;3.97;;;2.53;;
15528;SDS011;7866;52.280;9.500;2023-05-10T04:19:48;3.77;;;3.20;;
15528;SDS011;7866;52.280;9.500;2023-05-10T04:24:49;3.70;;;3.33;;
15528;SDS011;7866;52.280;9.500;2023-05-10T04:29:51;4.00;;;3.70;;
15528;SDS011;7866;52.280;9.500;2023-05-10T04:34:54;5.17;;;3.57;;
15528;SDS011;7866;52.280;9.500;2023-05-10T04:39:56;4.77;;;4.07;;
15528;SDS011;7866;52.280;9.500;2023-05-10T04:44:57;4.60;;;4.07;;
15528;SDS011;7866;52.280;9.500;2023-05-10T04:50:00;6.17;;;4.80;;
15528;SDS011;7866;52.280;9.500;2023-05-10T04:55:02;5.57;;;5.17;;
15528;SDS011;7866;52.280;9.500;2023-05-10T05:00:04;4.63;;;4.23;;
15528;SDS011;7866;52.280;9.500;2023-05-10T05:05:08;4.57;;;4.17;;
15528;SDS011;7866;52.280;9.500;2023-05-10T05:10:10;4.23;;;3.83;;
15528;SDS011;7866;52.280;9.500;2023-05-10T05:15:11;4.67;;;4.20;;
15528;SDS011;7866;52.280;9.500;2023-05-10T05:20:15;3.73;;;3.43;;
15528;SDS011;7866;52.280;9.500;2023-05-10T05:25:18;3.70;;;3.40;;
15528;SDS011;7866;52.280;9.500;2023-05-10T05:30:20;3.07;;;2.87;;
15528;SDS011;7866;52.280;9.500;2023-05-10T05:35:23;3.20;;;2.97;;
15528;SDS011;7866;52.280;9.500;2023-05-10T05:40:25;4.57;;;3.07;;
15528;SDS011;7866;52.280;9.500;2023-05-10T05:45:26;3.57;;;3.00;;
15528;SDS011;7866;52.280;9.500;2023-05-10T05:50:29;4.43;;;2.80;;
15528;SDS011;7866;52.280;9.500;2023-05-10T05:55:31;2.70;;;2.50;;
15528;SDS011;7866;52.280;9.500;2023-05-10T06:00:33;2.70;;;2.50;;
15528;SDS011;7866;52.280;9.500;2023-05-10T06:05:36;3.03;;;2.83;;
15528;SDS011;7866;52.280;9.500;2023-05-10T06:10:56;2.50;;;2.30;;
15528;SDS011;7866;52.280;9.500;2023-05-10T06:15:57;2.70;;;2.50;;
15528;SDS011;7866;52.280;9.500;2023-05-10T06:21:01;3.07;;;2.20;;
15528;SDS011;7866;52.280;9.500;2023-05-10T06:26:03;2.37;;;2.27;;
15528;SDS011;7866;52.280;9.500;2023-05-10T06:31:04;3.13;;;2.37;;
15528;SDS011;7866;52.280;9.500;2023-05-10T06:36:08;2.60;;;2.40;;
15528;SDS011;7866;52.280;9.500;2023-05-10T06:41:09;2.65;;;2.45;;
15528;SDS011;7866;52.280;9.500;2023-05-10T06:46:11;3.13;;;2.83;;
15528;SDS011;7866;52.280;9.500;2023-05-10T06:51:14;2.42;;;2.15;;
15528;SDS011;7866;52.280;9.500;2023-05-10T06:56:16;2.28;;;2.17;;
15528;SDS011;7866;52.280;9.500;2023-05-10T07:01:17;2.17;;;2.08;;
15528;SDS011;7866;52.280;9.500;2023-05-10T07:06:20;2.08;;;1.98;;
15528;SDS011;7866;52.280;9.500;2023-05-10T07:11:22;2.72;;;1.50;;
15528;SDS011;7866;52.280;9.500;2023-05-10T07:16:23;1.23;;;1.15;;
15528;SDS011;7866;52.280;9.500;2023-05-10T07:21:26;0.98;;;0.88;;
15528;SDS011;7866;52.280;9.500;2023-05-10T07:26:29;2.05;;;0.60;;
15528;SDS011;7866;52.280;9.500;2023-05-10T07:31:30;0.60;;;0.60;;
15528;SDS011;7866;52.280;9.500;2023-05-10T07:36:33;0.40;;;0.40;;
15528;SDS011;7866;52.280;9.500;2023-05-10T07:41:35;0.30;;;0.30;;
15528;SDS011;7866;52.280;9.500;2023-05-10T07:46:38;0.10;;;0.10;;
15528;SDS011;7866;52.280;9.500;2023-05-10T07:51:41;0.30;;;0.30;;
15528;SDS011;7866;52.280;9.500;2023-05-10T07:56:43;0.30;;;0.30;;
15528;SDS011;7866;52.280;9.500;2023-05-10T08:01:47;0.40;;;0.40;;
15528;SDS011;7866;52.280;9.500;2023-05-10T08:06:50;0.55;;;0.55;;
15528;SDS011;7866;52.280;9.500;2023-05-10T08:11:51;0.20;;;0.20;;
15528;SDS011;7866;52.280;9.500;2023-05-10T08:16:53;0.60;;;0.60;;
15528;SDS011;7866;52.280;9.500;2023-05-10T08:21:56;0.28;;;0.28;;
15528;SDS011;7866;52.280;9.500;2023-05-10T08:26:58;0.30;;;0.30;;
15528;SDS011;7866;52.280;9.500;2023-05-10T08:31:59;0.40;;;0.40;;
15528;SDS011;7866;52.280;9.500;2023-05-10T08:37:03;0.40;;;0.40;;
15528;SDS011;7866;52.280;9.500;2023-05-10T08:42:05;0.85;;;0.40;;
15528;SDS011;7866;52.280;9.500;2023-05-10T08:47:08;0.50;;;0.50;;
15528;SDS011;7866;52.280;9.500;2023-05-10T08:52:12;0.80;;;0.80;;
15528;SDS011;7866;52.280;9.500;2023-05-10T08:57:16;0.68;;;0.68;;
15528;SDS011;7866;52.280;9.500;2023-05-10T09:02:19;0.80;;;0.70;;
15528;SDS011;7866;52.280;9.500;2023-05-10T09:07:23;0.90;;;0.90;;
15528;SDS011;7866;52.280;9.500;2023-05-10T09:12:25;0.65;;;0.65;;
15528;SDS011;7866;52.280;9.500;2023-05-10T09:17:26;1.17;;;1.10;;
15528;SDS011;7866;52.280;9.500;2023-05-10T09:22:31;0.90;;;0.90;;
15528;SDS011;7866;52.280;9.500;2023-05-10T09:27:33;0.90;;;0.80;;
15528;SDS011;7866;52.280;9.500;2023-05-10T09:32:38;1.13;;;0.90;;
15528;SDS011;7866;52.280;9.500;2023-05-10T09:37:42;1.20;;;1.15;;
15528;SDS011;7866;52.280;9.500;2023-05-10T09:42:50;1.00;;;1.00;;
15528;SDS011;7866;52.280;9.500;2023-05-10T09:47:53;1.30;;;1.20;;
15528;SDS011;7866;52.280;9.500;2023-05-10T09:52:57;3.72;;;1.90;;
15528;SDS011;7866;52.280;9.500;2023-05-10T09:58:00;2.05;;;1.80;;
15528;SDS011;7866;52.280;9.500;2023-05-10T10:03:02;3.28;;;2.20;;
15528;SDS011;7866;52.280;9.500;2023-05-10T10:08:06;2.83;;;2.10;;
15528;SDS011;7866;52.280;9.500;2023-05-10T10:13:07;2.28;;;2.15;;
15528;SDS011;7866;52.280;9.500;2023-05-10T10:18:11;3.10;;;2.28;;
15528;SDS011;7866;52.280;9.500;2023-05-10T10:23:15;2.95;;;2.70;;
15528;SDS011;7866;52.280;9.500;2023-05-10T10:28:21;3.58;;;2.38;;
15528;SDS011;7866;52.280;9.500;2023-05-10T10:33:36;4.15;;;3.72;;
15528;SDS011;7866;52.280;9.500;2023-05-10T10:38:56;3.42;;;3.13;;
15528;SDS011;7866;52.280;9.500;2023-05-10T10:49:26;4.40;;;4.03;;
15528;SDS011;7866;52.280;9.500;2023-05-10T10:54:29;5.25;;;3.95;;
15528;SDS011;7866;52.280;9.500;2023-05-10T10:59:31;3.53;;;3.08;;
15528;SDS011;7866;52.280;9.500;2023-05-10T11:04:37;4.40;;;3.40;;
15528;SDS011;7866;52.280;9.500;2023-05-10T11:09:44;4.40;;;3.75;;
15528;SDS011;7866;52.280;9.500;2023-05-10T11:14:49;4.82;;;3.80;;
15528;SDS011;7866;52.280;9.500;2023-05-10T11:20:06;4.13;;;3.20;;
15528;SDS011;7866;52.280;9.500;2023-05-10T11:25:10;3.92;;;3.53;;
15528;SDS011;7866;52.280;9.500;2023-05-10T11:30:13;4.70;;;4.20;;
15528;SDS011;7866;52.280;9.500;2023-05-10T11:35:15;3.65;;;3.22;;
15528;SDS011;7866;52.280;9.500;2023-05-10T11:40:18;5.30;;;3.83;;
15528;SDS011;7866;52.280;9.500;2023-05-10T11:45:23;4.70;;;3.65;;
15528;SDS011;7866;52.280;9.500;2023-05-10T11:50:26;5.60;;;3.80;;
15528;SDS011;7866;52.280;9.500;2023-05-10T11:55:29;4.72;;;3.97;;
15528;SDS011;7866;52.280;9.500;2023-05-10T12:00:34;3.67;;;3.28;;
15528;SDS011;7866;52.280;9.500;2023-05-10T12:05:36;3.05;;;2.85;;
15528;SDS011;7866;52.280;9.500;2023-05-10T12:10:41;4.13;;;3.72;;
15528;SDS011;7866;52.280;9.500;2023-05-10T12:15:43;6.10;;;5.28;;
15528;SDS011;7866;52.280;9.500;2023-05-10T12:20:45;4.30;;;3.90;;
15528;SDS011;7866;52.280;9.500;2023-05-10T12:25:48;3.70;;;3.40;;
15528;SDS011;7866;52.280;9.500;2023-05-10T12:30:49;4.25;;;3.80;;
15528;SDS011;7866;52.280;9.500;2023-05-10T12:35:54;6.05;;;4.35;;
15528;SDS011;7866;52.280;9.500;2023-05-10T12:40:59;5.32;;;4.10;;
15528;SDS011;7866;52.280;9.500;2023-05-10T12:46:05;4.30;;;3.90;;
15528;SDS011;7866;52.280;9.500;2023-05-10T12:51:07;3.75;;;2.90;;
15528;SDS011;7866;52.280;9.500;2023-05-10T12:56:11;4.20;;;3.30;;
15528;SDS011;7866;52.280;9.500;2023-05-10T13:01:12;3.30;;;2.97;;
15528;SDS011;7866;52.280;9.500;2023-05-10T13:06:14;3.70;;;3.40;;
15528;SDS011;7866;52.280;9.500;2023-05-10T13:11:17;4.00;;;3.70;;
15528;SDS011;7866;52.280;9.500;2023-05-10T13:16:19;3.42;;;3.13;;
15528;SDS011;7866;52.280;9.500;2023-05-10T13:21:21;3.95;;;3.53;;
15528;SDS011;7866;52.280;9.500;2023-05-10T13:26:25;3.53;;;3.25;;
15528;SDS011;7866;52.280;9.500;2023-05-10T13:31:28;4.55;;;3.47;;
15528;SDS011;7866;52.280;9.500;2023-05-10T13:36:29;3.90;;;3.40;;
15528;SDS011;7866;52.280;9.500;2023-05-10T13:41:32;5.90;;;3.25;;
15528;SDS011;7866;52.280;9.500;2023-05-10T13:46:34;5.28;;;3.90;;
15528;SDS011;7866;52.280;9.500;2023-05-10T13:51:36;4.75;;;3.13;;
15528;SDS011;7866;52.280;9.500;2023-05-10T13:56:39;4.80;;;3.70;;
15528;SDS011;7866;52.280;9.500;2023-05-10T14:01:40;3.53;;;3.20;;
15528;SDS011;7866;52.280;9.500;2023-05-10T14:06:42;3.42;;;3.13;;
15528;SDS011;7866;52.280;9.500;2023-05-10T14:11:45;3.15;;;2.85;;
15528;SDS011;7866;52.280;9.500;2023-05-10T14:16:47;4.28;;;3.88;;
15528;SDS011;7866;52.280;9.500;2023-05-10T14:21:49;6.63;;;6.03;;
15528;SDS011;7866;52.280;9.500;2023-05-10T14:26:53;9.32;;;6.18;;
15528;SDS011;7866;52.280;9.500;2023-05-10T14:31:54;6.18;;;5.57;;
15528;SDS011;7866;52.280;9.500;2023-05-10T14:36:56;6.68;;;5.88;;
15528;SDS011;7866;52.280;9.500;2023-05-10T14:41:59;9.23;;;6.70;;
15528;SDS011;7866;52.280;9.500;2023-05-10T14:47:02;7.18;;;6.47;;
15528;SDS011;7866;52.280;9.500;2023-05-10T14:52:04;8.45;;;7.55;;
15528;SDS011;7866;52.280;9.500;2023-05-10T14:57:07;10.20;;;8.73;;
15528;SDS011;7866;52.280;9.500;2023-05-10T15:02:09;11.15;;;9.27;;
15528;SDS011;7866;52.280;9.500;2023-05-10T15:07:10;11.48;;;10.23;;
15528;SDS011;7866;52.280;9.500;2023-05-10T15:12:15;12.75;;;11.02;;
15528;SDS011;7866;52.280;9.500;2023-05-10T15:17:17;8.52;;;7.68;;
15528;SDS011;7866;52.280;9.500;2023-05-10T15:22:21;11.00;;;9.35;;
15528;SDS011;7866;52.280;9.500;2023-05-10T15:27:24;11.40;;;9.98;;
15528;SDS011;7866;52.280;9.500;2023-05-10T15:32:25;10.75;;;9.63;;
15528;SDS011;7866;52.280;9.500;2023-05-10T15:37:29;12.18;;;10.70;;
15528;SDS011;7866;52.280;9.500;2023-05-10T15:42:32;11.25;;;9.70;;
15528;SDS011;7866;52.280;9.500;2023-05-10T15:47:37;12.38;;;11.02;;
15528;SDS011;7866;52.280;9.500;2023-05-10T15:52:40;12.70;;;10.63;;
15528;SDS011;7866;52.280;9.500;2023-05-10T15:57:43;13.45;;;10.63;;
15528;SDS011;7866;52.280;9.500;2023-05-10T16:02:45;12.13;;;10.88;;
15528;SDS011;7866;52.280;9.500;2023-05-10T16:07:47;14.32;;;10.38;;
15528;SDS011;7866;52.280;9.500;2023-05-10T16:12:50;15.13;;;11.00;;
15528;SDS011;7866;52.280;9.500;2023-05-10T16:17:51;18.73;;;10.77;;
15528;SDS011;7866;52.280;9.500;2023-05-10T16:22:53;15.43;;;11.27;;
15528;SDS011;7866;52.280;9.500;2023-05-10T16:27:57;14.80;;;11.07;;
15528;SDS011;7866;52.280;9.500;2023-05-10T16:32:59;11.25;;;7.85;;
15528;SDS011;7866;52.280;9.500;2023-05-10T16:38:01;7.47;;;5.65;;
15528;SDS011;7866;52.280;9.500;2023-05-10T16:43:04;5.57;;;4.22;;
15528;SDS011;7866;52.280;9.500;2023-05-10T16:48:06;5.55;;;3.03;;
15528;SDS011;7866;52.280;9.500;2023-05-10T16:53:26;6.43;;;2.55;;
15528;SDS011;7866;52.280;9.500;2023-05-10T16:58:29;3.90;;;2.95;;
15528;SDS011;7866;52.280;9.500;2023-05-10T17:03:30;3.03;;;2.72;;
15528;SDS011;7866;52.280;9.500;2023-05-10T17:08:32;5.25;;;2.78;;
15528;SDS011;7866;52.280;9.500;2023-05-10T17:13:35;3.38;;;2.00;;
15528;SDS011;7866;52.280;9.500;2023-05-10T17:18:37;4.65;;;2.25;;
15528;SDS011;7866;52.280;9.500;2023-05-10T17:23:40;3.03;;;2.28;;
15528;SDS011;7866;52.280;9.500;2023-05-10T17:28:43;3.20;;;2.20;;
15528;SDS011;7866;52.280;9.500;2023-05-10T17:33:45;3.65;;;2.65;;
15528;SDS011;7866;52.280;9.500;2023-05-10T17:38:46;3.10;;;2.72;;
15528;SDS011;7866;52.280;9.500;2023-05-10T17:43:49;3.72;;;2.38;;
15528;SDS011;7866;52.280;9.500;2023-05-10T17:48:51;3.13;;;2.45;;
15528;SDS011;7866;52.280;9.500;2023-05-10T17:53:53;4.30;;;2.50;;
15528;SDS011;7866;52.280;9.500;2023-05-10T17:58:56;4.00;;;2.45;;
15528;SDS011;7866;52.280;9.500;2023-05-10T18:03:57;2.55;;;2.10;;
15528;SDS011;7866;52.280;9.500;2023-05-10T18:09:00;3.53;;;2.70;;
15528;SDS011;7866;52.280;9.500;2023-05-10T18:14:04;6.70;;;2.80;;
15528;SDS011;7866;52.280;9.500;2023-05-10T18:19:06;3.00;;;2.80;;
15528;SDS011;7866;52.280;9.500;2023-05-10T18:24:07;4.68;;;3.58;;
15528;SDS011;7866;52.280;9.500;2023-05-10T18:29:10;5.20;;;3.63;;
15528;SDS011;7866;52.280;9.500;2023-05-10T18:34:12;3.83;;;3.40;;
15528;SDS011;7866;52.280;9.500;2023-05-10T18:39:13;4.32;;;3.90;;
15528;SDS011;7866;52.280;9.500;2023-05-10T18:44:18;5.00;;;4.15;;
15528;SDS011;7866;52.280;9.500;2023-05-10T18:49:20;4.45;;;4.05;;
15528;SDS011;7866;52.280;9.500;2023-05-10T18:54:22;4.25;;;3.85;;
15528;SDS011;7866;52.280;9.500;2023-05-10T18:59:26;4.60;;;4.20;;
15528;SDS011;7866;52.280;9.500;2023-05-10T19:04:27;4.28;;;3.60;;
15528;SDS011;7866;52.280;9.500;2023-05-10T19:09:29;4.30;;;3.67;;
15528;SDS011;7866;52.280;9.500;2023-05-10T19:14:32;6.50;;;4.15;;
15528;SDS011;7866;52.280;9.500;2023-05-10T19:19:34;4.60;;;4.10;;
15528;SDS011;7866;52.280;9.500;2023-05-10T19:24:35;4.22;;;3.83;;
15528;SDS011;7866;52.280;9.500;2023-05-10T19:29:38;4.70;;;4.30;;
15528;SDS011;7866;52.280;9.500;2023-05-10T19:34:40;4.57;;;4.18;;
15528;SDS011;7866;52.280;9.500;2023-05-10T19:39:42;4.95;;;4.30;;
15528;SDS011;7866;52.280;9.500;2023-05-10T19:44:45;4.78;;;4.38;;
15528;SDS011;7866;52.280;9.500;2023-05-10T19:49:47;6.07;;;4.70;;
15528;SDS011;7866;52.280;9.500;2023-05-10T19:54:48;4.83;;;4.43;;
15528;SDS011;7866;52.280;9.500;2023-05-10T19:59:51;5.17;;;4.27;;
15528;SDS011;7866;52.280;9.500;2023-05-10T20:04:53;8.23;;;4.40;;
15528;SDS011;7866;52.280;9.500;2023-05-10T20:09:55;4.60;;;4.10;;
15528;SDS011;7866;52.280;9.500;2023-05-10T20:14:58;4.23;;;3.93;;
15528;SDS011;7866;52.280;9.500;2023-05-10T20:19:59;4.60;;;4.07;;
15528;SDS011;7866;52.280;9.500;2023-05-10T20:25:01;5.03;;;4.57;;
15528;SDS011;7866;52.280;9.500;2023-05-10T20:30:04;3.90;;;3.60;;
15528;SDS011;7866;52.280;9.500;2023-05-10T20:35:07;4.82;;;3.60;;
15528;SDS011;7866;52.280;9.500;2023-05-10T20:40:10;5.23;;;4.30;;
15528;SDS011;7866;52.280;9.500;2023-05-10T20:45:13;4.17;;;3.80;;
15528;SDS011;7866;52.280;9.500;2023-05-10T20:50:15;5.15;;;3.58;;
15528;SDS011;7866;52.280;9.500;2023-05-10T20:55:16;4.05;;;3.70;;
15528;SDS011;7866;52.280;9.500;2023-05-10T21:00:20;5.57;;;3.70;;
15528;SDS011;7866;52.280;9.500;2023-05-10T21:05:22;4.88;;;3.28;;
15528;SDS011;7866;52.280;9.500;2023-05-10T21:10:24;3.60;;;3.28;;
15528;SDS011;7866;52.280;9.500;2023-05-10T21:15:28;3.20;;;2.95;;
15528;SDS011;7866;52.280;9.500;2023-05-10T21:20:30;3.30;;;3.10;;
15528;SDS011;7866;52.280;9.500;2023-05-10T21:25:31;3.50;;;3.20;;
15528;SDS011;7866;52.280;9.500;2023-05-10T21:30:34;3.03;;;2.83;;
15528;SDS011;7866;52.280;9.500;2023-05-10T21:35:36;4.28;;;3.70;;
15528;SDS011;7866;52.280;9.500;2023-05-10T21:40:41;3.95;;;3.50;;
15528;SDS011;7866;52.280;9.500;2023-05-10T21:45:44;4.05;;;3.67;;
15528;SDS011;7866;52.280;9.500;2023-05-10T21:50:46;5.53;;;3.50;;
15528;SDS011;7866;52.280;9.500;2023-05-10T21:55:47;6.75;;;4.00;;
15528;SDS011;7866;52.280;9.500;2023-05-10T22:00:50;3.77;;;3.47;;
15528;SDS011;7866;52.280;9.500;2023-05-10T22:05:52;4.20;;;3.90;;
15528;SDS011;7866;52.280;9.500;2023-05-10T22:10:53;5.23;;;3.33;;
15528;SDS011;7866;52.280;9.500;2023-05-10T22:15:56;4.17;;;3.77;;
15528;SDS011;7866;52.280;9.500;2023-05-10T22:20:58;3.83;;;3.30;;
15528;SDS011;7866;52.280;9.500;2023-05-10T22:26:00;3.95;;;3.65;;
15528;SDS011;7866;52.280;9.500;2023-05-10T22:31:07;3.90;;;3.17;;
15528;SDS011;7866;52.280;9.500;2023-05-10T22:36:09;3.67;;;3.37;;
15528;SDS011;7866;52.280;9.500;2023-05-10T22:41:11;3.47;;;3.20;;
15528;SDS011;7866;52.280;9.500;2023-05-10T22:46:14;3.73;;;3.17;;
15528;SDS011;7866;52.280;9.500;2023-05-10T22:51:15;4.43;;;3.23;;
15528;SDS011;7866;52.280;9.500;2023-05-10T22:56:17;3.23;;;3.03;;
15528;SDS011;7866;52.280;9.500;2023-05-10T23:01:20;3.53;;;3.23;;
15528;SDS011;7866;52.280;9.500;2023-05-10T23:06:21;4.40;;;4.00;;
15528;SDS011;7866;52.280;9.500;2023-05-10T23:11:23;3.83;;;3.50;;
15528;SDS011;7866;52.280;9.500;2023-05-10T23:16:26;6.17;;;3.50;;
15528;SDS011;7866;52.280;9.500;2023-05-10T23:21:28;3.50;;;3.17;;
15528;SDS011;7866;52.280;9.500;2023-05-10T23:26:30;4.93;;;3.37;;
15528;SDS011;7866;52.280;9.500;2023-05-10T23:31:33;4.43;;;3.27;;
15528;SDS011;7866;52.280;9.500;2023-05-10T23:36:36;3.33;;;3.13;;
15528;SDS011;7866;52.280;9.500;2023-05-10T23:41:37;4.27;;;2.93;;
15528;SDS011;7866;52.280;9.500;2023-05-10T23:46:40;4.10;;;3.53;;
15528;SDS011;7866;52.280;9.500;2023-05-10T23:51:42;4.20;;;3.90;;
15528;SDS011;7866;52.280;9.500;2023-05-10T23:56:43;4.20;;;3.80;;
